createdAt,value
2019-03-08T00:01:31.766Z,18.80
2019-03-08T00:03:58.067Z,18.80
2019-03-08T00:06:24.865Z,18.80
2019-03-08T00:08:51.325Z,18.80
2019-03-08T00:11:17.834Z,18.80
2019-03-08T00:13:44.352Z,18.80
2019-03-08T00:16:10.696Z,18.80
2019-03-08T00:18:37.252Z,18.80
2019-03-08T00:21:03.837Z,18.80
2019-03-08T00:23:30.402Z,18.80
2019-03-08T00:25:56.921Z,18.80
2019-03-08T00:28:23.345Z,18.80
2019-03-08T00:30:49.645Z,18.80
2019-03-08T00:33:16.061Z,18.80
2019-03-08T00:35:42.366Z,18.80
2019-03-08T00:38:08.799Z,18.80
2019-03-08T00:40:35.391Z,18.80
2019-03-08T00:43:02.368Z,18.80
2019-03-08T00:45:28.843Z,18.80
2019-03-08T00:47:55.266Z,18.80
2019-03-08T00:50:21.800Z,18.80
2019-03-08T00:52:48.497Z,18.80
2019-03-08T00:55:15.013Z,18.80
2019-03-08T00:57:41.448Z,18.80
2019-03-08T01:00:12.504Z,18.80
2019-03-08T01:02:38.912Z,18.70
2019-03-08T01:05:06.675Z,18.80
2019-03-08T01:07:33.209Z,18.70
2019-03-08T01:09:59.754Z,18.70
2019-03-08T01:12:26.443Z,18.70
2019-03-08T01:14:52.854Z,18.70
2019-03-08T01:17:19.946Z,18.70
2019-03-08T01:19:46.733Z,18.70
2019-03-08T01:22:13.138Z,18.70
2019-03-08T01:24:40.106Z,18.70
2019-03-08T01:27:06.517Z,18.70
2019-03-08T01:29:33.430Z,18.70
2019-03-08T01:31:59.855Z,18.70
2019-03-08T01:34:26.992Z,18.70
2019-03-08T01:36:53.504Z,18.60
2019-03-08T01:39:20.011Z,18.70
2019-03-08T01:41:46.347Z,18.70
2019-03-08T01:44:12.869Z,18.60
2019-03-08T01:46:39.269Z,18.70
2019-03-08T01:49:05.701Z,18.60
2019-03-08T01:51:32.642Z,18.60
2019-03-08T01:53:59.053Z,18.60
2019-03-08T01:56:25.567Z,18.60
2019-03-08T01:58:52.002Z,18.60
2019-03-08T02:01:18.409Z,18.60
2019-03-08T02:03:44.929Z,18.60
2019-03-08T02:06:11.617Z,18.60
2019-03-08T02:08:38.289Z,18.60
2019-03-08T02:11:04.711Z,18.60
2019-03-08T02:13:31.120Z,18.60
2019-03-08T02:15:57.992Z,18.60
2019-03-08T02:18:24.445Z,18.60
2019-03-08T02:20:52.323Z,18.60
2019-03-08T02:23:18.982Z,18.60
2019-03-08T02:25:45.755Z,18.60
2019-03-08T02:28:12.677Z,18.60
2019-03-08T02:30:39.220Z,18.60
2019-03-08T02:33:06.099Z,18.60
2019-03-08T02:35:32.440Z,18.60
2019-03-08T02:37:58.954Z,18.60
2019-03-08T02:40:33.334Z,18.50
2019-03-08T02:43:01.157Z,18.50
2019-03-08T02:45:27.690Z,18.50
2019-03-08T02:47:54.192Z,18.50
2019-03-08T02:50:20.494Z,18.50
2019-03-08T02:52:47.293Z,18.50
2019-03-08T02:55:14.234Z,18.50
2019-03-08T02:57:40.663Z,18.50
2019-03-08T03:00:10.404Z,18.50
2019-03-08T03:02:36.940Z,18.40
2019-03-08T03:05:04.953Z,18.40
2019-03-08T03:07:31.466Z,18.50
2019-03-08T03:09:57.898Z,18.50
2019-03-08T03:12:24.457Z,18.50
2019-03-08T03:14:51.931Z,18.50
2019-03-08T03:17:18.568Z,18.50
2019-03-08T03:19:44.885Z,18.50
2019-03-08T03:22:11.444Z,18.50
2019-03-08T03:24:38.057Z,18.40
2019-03-08T03:27:04.600Z,18.40
2019-03-08T03:29:31.146Z,18.40
2019-03-08T03:32:00.061Z,18.40
2019-03-08T03:34:26.513Z,18.40
2019-03-08T03:36:53.441Z,18.40
2019-03-08T03:39:19.731Z,18.40
2019-03-08T03:41:46.138Z,18.40
2019-03-08T03:44:12.674Z,18.40
2019-03-08T03:46:39.437Z,18.40
2019-03-08T03:49:05.931Z,18.40
2019-03-08T03:51:32.646Z,18.40
2019-03-08T03:54:02.367Z,18.40
2019-03-08T03:56:28.962Z,18.40
2019-03-08T03:58:55.514Z,18.40
2019-03-08T04:01:30.305Z,18.40
2019-03-08T04:03:57.198Z,18.30
2019-03-08T04:06:23.716Z,18.30
2019-03-08T04:08:50.131Z,18.30
2019-03-08T04:11:16.553Z,18.30
2019-03-08T04:13:42.982Z,18.30
2019-03-08T04:16:09.499Z,18.40
2019-03-08T04:18:36.039Z,18.50
2019-03-08T04:21:02.574Z,18.60
2019-03-08T04:23:29.328Z,18.60
2019-03-08T04:25:56.021Z,18.70
2019-03-08T04:28:28.710Z,18.70
2019-03-08T04:30:57.453Z,18.70
2019-03-08T04:33:24.230Z,18.70
2019-03-08T04:35:57.296Z,18.70
2019-03-08T04:38:23.986Z,18.70
2019-03-08T04:40:50.973Z,18.70
2019-03-08T04:43:17.371Z,18.70
2019-03-08T04:45:43.937Z,18.70
2019-03-08T04:48:10.689Z,18.70
2019-03-08T04:50:37.106Z,18.70
2019-03-08T04:53:03.538Z,18.80
2019-03-08T04:55:30.153Z,18.80
2019-03-08T04:57:56.515Z,18.80
2019-03-08T05:00:23.282Z,18.80
2019-03-08T05:02:50.211Z,18.80
2019-03-08T05:05:16.749Z,18.80
2019-03-08T05:07:43.309Z,18.80
2019-03-08T05:10:14.437Z,18.80
2019-03-08T05:12:41.161Z,18.90
2019-03-08T05:15:08.075Z,18.80
2019-03-08T05:17:34.506Z,18.80
2019-03-08T05:20:00.903Z,18.80
2019-03-08T05:22:27.556Z,18.80
2019-03-08T05:24:53.854Z,18.80
2019-03-08T05:27:20.285Z,18.80
2019-03-08T05:29:47.011Z,18.80
2019-03-08T05:32:13.303Z,18.80
2019-03-08T05:34:39.646Z,18.80
2019-03-08T05:37:05.929Z,18.90
2019-03-08T05:39:32.353Z,18.80
2019-03-08T05:41:58.661Z,18.80
2019-03-08T05:44:24.956Z,18.80
2019-03-08T05:46:51.483Z,18.80
2019-03-08T05:49:17.997Z,18.80
2019-03-08T05:51:44.502Z,18.80
2019-03-08T05:54:11.005Z,18.80
2019-03-08T05:56:37.434Z,18.80
2019-03-08T05:59:03.955Z,18.80
2019-03-08T06:01:30.519Z,18.80
2019-03-08T06:03:57.245Z,18.80
2019-03-08T06:06:26.064Z,18.80
2019-03-08T06:08:53.004Z,18.80
2019-03-08T06:11:19.381Z,18.70
2019-03-08T06:13:45.899Z,18.80
2019-03-08T06:16:12.337Z,18.70
2019-03-08T06:18:38.918Z,18.70
2019-03-08T06:21:05.677Z,18.70
2019-03-08T06:23:32.042Z,18.70
2019-03-08T06:25:59.646Z,18.70
2019-03-08T06:28:26.190Z,18.70
2019-03-08T06:30:52.703Z,18.70
2019-03-08T06:33:19.246Z,18.60
2019-03-08T06:35:45.760Z,18.60
2019-03-08T06:38:12.179Z,18.60
2019-03-08T06:40:38.612Z,18.70
2019-03-08T06:43:05.049Z,18.60
2019-03-08T06:45:31.849Z,18.60
2019-03-08T06:47:58.454Z,18.70
2019-03-08T06:50:25.161Z,18.60
2019-03-08T06:52:51.761Z,18.60
2019-03-08T06:55:18.427Z,18.60
2019-03-08T06:57:44.939Z,18.60
2019-03-08T07:00:23.583Z,18.60
2019-03-08T07:02:50.191Z,18.60
2019-03-08T07:05:16.541Z,18.60
2019-03-08T07:07:43.061Z,18.60
2019-03-08T07:10:10.133Z,18.60
2019-03-08T07:12:36.983Z,18.60
2019-03-08T07:15:05.133Z,18.60
2019-03-08T07:17:31.934Z,18.60
2019-03-08T07:20:00.312Z,18.60
2019-03-08T07:22:43.959Z,18.60
2019-03-08T07:25:29.418Z,18.70
2019-03-08T07:28:00.386Z,18.70
2019-03-08T07:30:45.046Z,18.60
2019-03-08T07:33:19.321Z,18.60
2019-03-08T07:35:47.888Z,18.60
2019-03-08T07:38:18.671Z,18.60
2019-03-08T07:41:02.096Z,18.60
2019-03-08T07:43:30.440Z,18.60
2019-03-08T07:46:13.910Z,18.70
2019-03-08T07:48:42.580Z,18.70
2019-03-08T07:51:13.945Z,18.70
2019-03-08T07:53:45.254Z,18.70
2019-03-08T07:56:22.381Z,18.60
2019-03-08T07:59:08.618Z,18.70
2019-03-08T08:01:37.218Z,18.70
2019-03-08T08:04:05.430Z,18.60
2019-03-08T08:06:36.371Z,18.60
2019-03-08T08:09:06.665Z,18.60
2019-03-08T08:11:40.744Z,18.60
2019-03-08T08:14:08.925Z,18.60
2019-03-08T08:16:37.138Z,18.60
2019-03-08T08:19:05.358Z,18.60
2019-03-08T08:21:36.558Z,18.60
2019-03-08T08:24:23.158Z,18.60
2019-03-08T08:26:54.086Z,18.60
2019-03-08T08:29:25.057Z,18.60
2019-03-08T08:31:53.367Z,18.60
2019-03-08T08:34:24.301Z,18.60
2019-03-08T08:37:01.606Z,18.60
2019-03-08T08:39:29.973Z,18.60
2019-03-08T08:42:15.672Z,18.50
2019-03-08T08:45:00.400Z,18.60
2019-03-08T08:47:28.598Z,18.60
2019-03-08T08:49:56.792Z,18.60
2019-03-08T08:52:31.689Z,18.60
2019-03-08T08:55:06.101Z,18.60
2019-03-08T08:57:37.376Z,18.50
2019-03-08T09:00:27.629Z,18.50
2019-03-08T09:03:09.441Z,18.60
2019-03-08T09:05:49.630Z,18.50
2019-03-08T09:08:21.281Z,18.50
2019-03-08T09:10:58.425Z,18.50
2019-03-08T09:13:41.626Z,18.50
2019-03-08T09:16:24.925Z,18.50
2019-03-08T09:19:09.770Z,18.50
2019-03-08T09:21:53.057Z,18.50
2019-03-08T09:24:30.794Z,18.60
2019-03-08T09:26:59.030Z,18.60
2019-03-08T09:29:41.420Z,18.60
2019-03-08T09:32:21.155Z,18.60
2019-03-08T09:34:49.350Z,18.60
2019-03-08T09:37:32.509Z,18.60
2019-03-08T09:40:09.633Z,18.60
2019-03-08T09:42:39.111Z,18.60
2019-03-08T09:45:15.181Z,18.60
2019-03-08T09:47:43.505Z,18.70
2019-03-08T09:50:11.829Z,18.70
2019-03-08T09:52:48.891Z,18.80
2019-03-08T09:55:20.270Z,18.80
2019-03-08T09:57:48.501Z,18.80
2019-03-08T10:00:32.037Z,18.80
2019-03-08T10:03:15.579Z,18.90
2019-03-08T10:05:46.733Z,18.90
2019-03-08T10:11:08.815Z,18.80
2019-03-08T10:13:53.802Z,18.80
2019-03-08T10:16:43.041Z,18.90
2019-03-08T10:19:14.224Z,18.90
2019-03-08T10:21:45.158Z,19.00
2019-03-08T10:24:22.114Z,19.00
2019-03-08T10:27:06.886Z,19.00
2019-03-08T10:29:35.125Z,19.10
2019-03-08T10:32:26.588Z,19.20
2019-03-08T10:35:00.740Z,19.30
2019-03-08T10:37:45.819Z,19.30
2019-03-08T10:40:31.921Z,19.30
2019-03-08T10:43:00.091Z,19.30
2019-03-08T10:45:37.514Z,19.40
2019-03-08T10:48:05.751Z,19.50
2019-03-08T10:50:39.725Z,19.50
2019-03-08T10:53:23.429Z,19.60
2019-03-08T10:56:03.925Z,19.60
2019-03-08T10:58:35.097Z,19.60
2019-03-08T11:01:03.404Z,19.60
2019-03-08T11:03:34.605Z,19.60
2019-03-08T11:06:15.205Z,19.70
2019-03-08T11:08:43.529Z,19.60
2019-03-08T11:11:14.437Z,19.60
2019-03-08T11:13:48.503Z,19.60
2019-03-08T11:16:28.987Z,19.70
2019-03-08T11:19:08.941Z,19.60
2019-03-08T11:21:52.602Z,19.70
2019-03-08T11:24:37.826Z,19.70
2019-03-08T11:27:24.170Z,19.80
2019-03-08T11:29:56.526Z,19.80
2019-03-08T11:32:24.725Z,19.80
2019-03-08T11:35:02.192Z,19.80
2019-03-08T11:37:30.398Z,19.80
2019-03-08T11:39:58.711Z,19.90
2019-03-08T11:42:30.259Z,19.90
2019-03-08T11:45:07.515Z,19.90
2019-03-08T11:47:35.751Z,19.90
2019-03-08T11:50:23.200Z,19.80
2019-03-08T11:53:13.685Z,19.80
2019-03-08T11:55:44.581Z,19.80
2019-03-08T11:58:21.542Z,19.90
2019-03-08T12:00:53.242Z,19.90
2019-03-08T12:03:27.705Z,19.80
2019-03-08T12:06:01.003Z,19.80
2019-03-08T12:08:44.122Z,19.90
2019-03-08T12:11:26.231Z,19.90
2019-03-08T12:13:54.463Z,19.90
2019-03-08T12:16:39.298Z,20.10
2019-03-08T12:19:10.602Z,20.20
2019-03-08T12:21:38.917Z,20.20
2019-03-08T12:24:16.088Z,20.20
2019-03-08T12:26:50.663Z,20.10
2019-03-08T12:29:33.829Z,20.10
2019-03-08T12:32:02.042Z,20.10
2019-03-08T12:34:42.098Z,20.00
2019-03-08T12:37:16.615Z,20.10
2019-03-08T12:39:51.586Z,20.10
2019-03-08T12:42:19.790Z,20.00
2019-03-08T12:44:53.785Z,20.10
2019-03-08T12:47:38.470Z,20.10
2019-03-08T12:50:08.969Z,20.10
2019-03-08T12:52:37.286Z,20.10
2019-03-08T12:55:20.537Z,20.10
2019-03-08T12:57:48.750Z,20.00
2019-03-08T13:00:17.657Z,20.00
2019-03-08T13:02:55.037Z,20.00
2019-03-08T13:05:39.946Z,20.00
2019-03-08T13:08:13.009Z,20.00
2019-03-08T13:10:39.628Z,20.00
2019-03-08T13:13:05.939Z,20.00
2019-03-08T13:15:32.266Z,20.10
2019-03-08T13:17:58.588Z,20.10
2019-03-08T13:20:26.016Z,20.00
2019-03-08T13:22:52.413Z,20.10
2019-03-08T13:25:18.910Z,20.10
2019-03-08T13:27:45.327Z,20.10
2019-03-08T13:30:15.432Z,20.20
2019-03-08T13:32:41.866Z,20.20
2019-03-08T13:35:11.288Z,20.20
2019-03-08T13:37:37.596Z,20.20
2019-03-08T13:40:06.417Z,20.20
2019-03-08T13:42:32.922Z,20.20
2019-03-08T13:44:59.360Z,20.20
2019-03-08T13:47:25.654Z,20.20
2019-03-08T13:49:51.953Z,20.20
2019-03-08T13:52:18.269Z,20.20
2019-03-08T13:54:44.677Z,20.20
2019-03-08T13:57:11.217Z,20.20
2019-03-08T13:59:37.917Z,20.10
2019-03-08T14:02:07.003Z,20.20
2019-03-08T14:04:35.677Z,20.10
2019-03-08T14:07:01.975Z,20.10
2019-03-08T14:09:28.285Z,20.10
2019-03-08T14:11:54.595Z,20.20
2019-03-08T14:14:21.101Z,20.20
2019-03-08T14:16:47.417Z,20.20
2019-03-08T14:19:13.976Z,20.20
2019-03-08T14:21:40.449Z,20.20
2019-03-08T14:24:06.752Z,20.20
2019-03-08T14:26:33.061Z,20.20
2019-03-08T14:28:59.405Z,20.20
2019-03-08T14:31:36.990Z,20.20
2019-03-08T14:34:03.373Z,20.20
2019-03-08T14:36:29.769Z,20.20
2019-03-08T14:38:56.282Z,20.20
2019-03-08T14:41:24.517Z,20.20
2019-03-08T14:43:53.878Z,20.30
2019-03-08T14:46:31.282Z,20.20
2019-03-08T14:48:57.795Z,20.20
2019-03-08T14:51:24.112Z,20.30
2019-03-08T14:53:50.512Z,20.30
2019-03-08T14:56:17.126Z,20.30
2019-03-08T14:58:43.439Z,20.30
2019-03-08T15:01:10.142Z,20.30
2019-03-08T15:03:43.444Z,20.30
2019-03-08T15:06:05.263Z,20.30
2019-03-08T15:08:40.027Z,20.30
2019-03-08T15:11:07.737Z,20.30
2019-03-08T15:13:34.533Z,20.30
2019-03-08T15:16:02.081Z,20.30
2019-03-08T15:18:31.178Z,20.30
2019-03-08T15:20:58.515Z,20.30
2019-03-08T15:23:27.596Z,20.20
2019-03-08T15:25:54.332Z,20.30
2019-03-08T15:28:20.978Z,20.30
2019-03-08T15:30:48.127Z,20.30
2019-03-08T15:33:14.726Z,20.40
2019-03-08T15:35:41.350Z,20.40
2019-03-08T15:38:07.750Z,20.40
2019-03-08T15:40:34.286Z,20.40
2019-03-08T15:43:00.584Z,20.40
2019-03-08T15:45:27.617Z,20.30
2019-03-08T15:47:54.225Z,20.30
2019-03-08T15:50:21.045Z,20.30
2019-03-08T15:52:47.668Z,20.30
2019-03-08T15:55:13.978Z,19.50
2019-03-08T15:57:40.508Z,19.50
2019-03-08T16:00:18.970Z,19.80
2019-03-08T16:02:45.689Z,19.80
2019-03-08T16:05:14.152Z,19.90
2019-03-08T16:07:40.647Z,20.00
2019-03-08T16:10:10.290Z,19.20
2019-03-08T16:12:36.932Z,18.70
2019-03-08T16:15:05.264Z,18.20
2019-03-08T16:17:32.197Z,18.00
2019-03-08T16:20:02.290Z,18.10
2019-03-08T16:22:28.635Z,18.50
2019-03-08T16:24:55.882Z,18.70
2019-03-08T16:27:22.556Z,18.90
2019-03-08T16:29:49.226Z,18.90
2019-03-08T16:32:17.666Z,18.90
2019-03-08T16:34:44.336Z,18.90
2019-03-08T16:37:14.269Z,19.00
2019-03-08T16:39:45.774Z,19.00
2019-03-08T16:42:14.292Z,19.00
2019-03-08T16:45:03.559Z,19.00
2019-03-08T16:47:42.623Z,19.00
2019-03-08T16:50:14.433Z,19.00
2019-03-08T16:52:51.692Z,19.00
2019-03-08T16:55:31.714Z,19.10
2019-03-08T16:58:17.429Z,19.00
2019-03-08T17:01:02.385Z,19.10
2019-03-08T17:03:30.955Z,19.10
2019-03-08T17:06:26.166Z,19.10
2019-03-08T17:08:51.073Z,19.10
2019-03-08T17:11:35.412Z,19.10
2019-03-08T17:14:04.206Z,19.10
2019-03-08T17:16:33.006Z,19.10
2019-03-08T17:19:11.722Z,19.10
2019-03-08T17:21:36.827Z,19.10
2019-03-08T17:24:21.910Z,19.00
2019-03-08T17:26:59.430Z,19.10
2019-03-08T17:29:34.164Z,19.10
2019-03-08T17:32:06.087Z,19.10
2019-03-08T17:34:37.444Z,19.00
2019-03-08T17:37:22.601Z,19.00
2019-03-08T17:39:51.179Z,19.00
2019-03-08T17:42:19.749Z,18.90
2019-03-08T17:45:04.099Z,18.90
2019-03-08T17:47:32.958Z,18.90
2019-03-08T17:50:05.184Z,18.90
2019-03-08T17:52:36.459Z,18.90
2019-03-08T17:55:12.427Z,18.90
2019-03-08T17:57:44.250Z,18.90
2019-03-08T18:00:29.685Z,18.90
2019-03-08T18:02:58.429Z,18.90
2019-03-08T18:05:39.455Z,18.90
2019-03-08T18:08:10.914Z,18.90
2019-03-08T18:10:56.294Z,18.90
2019-03-08T18:13:41.797Z,19.00
2019-03-08T18:16:11.039Z,19.00
2019-03-08T18:18:51.819Z,19.10
2019-03-08T18:21:27.118Z,19.00
2019-03-08T18:23:56.931Z,18.90
2019-03-08T18:26:25.468Z,18.90
2019-03-08T18:29:00.446Z,18.90
2019-03-08T18:31:38.274Z,19.00
2019-03-08T18:34:10.078Z,19.00
2019-03-08T18:36:41.837Z,19.10
2019-03-08T18:39:27.159Z,19.10
2019-03-08T18:41:57.462Z,19.00
2019-03-08T18:44:29.290Z,19.00
2019-03-08T18:47:04.169Z,19.00
2019-03-08T18:49:36.614Z,19.10
2019-03-08T18:52:05.661Z,19.10
2019-03-08T18:54:34.524Z,19.20
2019-03-08T18:57:18.430Z,19.20
2019-03-08T18:59:59.397Z,19.30
2019-03-08T19:02:31.121Z,19.30
2019-03-08T19:05:05.867Z,19.30
2019-03-08T19:07:49.617Z,19.30
2019-03-08T19:10:18.339Z,19.30
2019-03-08T19:12:46.862Z,19.30
2019-03-08T19:15:15.698Z,19.30
2019-03-08T19:17:59.470Z,19.30
2019-03-08T19:20:28.603Z,19.30
2019-03-08T19:22:58.455Z,19.40
2019-03-08T19:25:33.229Z,19.40
2019-03-08T19:28:07.389Z,19.40
2019-03-08T19:30:36.005Z,19.40
2019-03-08T19:33:11.212Z,19.40
2019-03-08T19:35:48.351Z,19.40
2019-03-08T19:38:20.459Z,19.30
2019-03-08T19:41:07.213Z,19.40
2019-03-08T19:43:38.970Z,19.40
2019-03-08T19:46:23.998Z,19.30
2019-03-08T19:49:04.940Z,19.40
2019-03-08T19:51:49.936Z,19.50
2019-03-08T19:54:19.206Z,19.50
2019-03-08T19:57:06.310Z,19.40
2019-03-08T19:59:47.072Z,19.40
2019-03-08T20:02:27.148Z,19.50
2019-03-08T20:04:55.828Z,19.40
2019-03-08T20:07:27.833Z,19.40
2019-03-08T20:09:59.403Z,19.50
2019-03-08T20:12:43.267Z,19.40
2019-03-08T20:15:18.643Z,19.40
2019-03-08T20:17:53.224Z,19.40
2019-03-08T20:20:31.270Z,19.40
2019-03-08T20:23:00.000Z,19.40
2019-03-08T20:25:28.963Z,19.40
2019-03-08T20:27:57.790Z,19.40
2019-03-08T20:30:26.274Z,19.40
2019-03-08T20:32:55.412Z,19.40
2019-03-08T20:35:40.645Z,19.40
2019-03-08T20:38:20.822Z,19.40
2019-03-08T20:40:52.068Z,19.40
2019-03-08T20:43:23.593Z,19.40
2019-03-08T20:45:52.387Z,19.30
2019-03-08T20:48:19.399Z,19.40
2019-03-08T20:50:46.093Z,19.40
2019-03-08T20:53:12.834Z,19.40
2019-03-08T20:55:39.794Z,19.30
2019-03-08T20:58:06.866Z,19.40
2019-03-08T21:00:33.545Z,19.40
2019-03-08T21:03:00.236Z,19.40
2019-03-08T21:05:27.057Z,19.30
2019-03-08T21:07:54.153Z,19.40
2019-03-08T21:10:20.814Z,19.30
2019-03-08T21:12:47.506Z,19.30
2019-03-08T21:15:14.192Z,19.30
2019-03-08T21:17:40.879Z,19.30
2019-03-08T21:20:09.942Z,19.30
2019-03-08T21:22:36.615Z,19.30
2019-03-08T21:25:06.646Z,19.30
2019-03-08T21:27:33.324Z,19.20
2019-03-08T21:30:00.301Z,19.20
2019-03-08T21:32:27.033Z,19.20
2019-03-08T21:34:53.545Z,19.20
2019-03-08T21:37:20.186Z,19.20
2019-03-08T21:39:46.696Z,19.20
2019-03-08T21:42:14.153Z,19.10
2019-03-08T21:44:40.581Z,19.10
2019-03-08T21:47:07.141Z,19.10
2019-03-08T21:49:33.626Z,19.00
2019-03-08T21:52:00.478Z,19.00
2019-03-08T21:54:26.992Z,19.00
2019-03-08T21:56:53.455Z,19.00
2019-03-08T21:59:19.929Z,19.00
2019-03-08T22:01:46.473Z,19.00
2019-03-08T22:04:17.981Z,18.90
2019-03-08T22:06:44.507Z,18.90
2019-03-08T22:09:12.948Z,18.90
2019-03-08T22:11:41.388Z,18.80
2019-03-08T22:14:08.432Z,18.90
2019-03-08T22:16:35.247Z,18.90
2019-03-08T22:19:01.677Z,18.80
2019-03-08T22:21:28.217Z,18.80
2019-03-08T22:23:54.769Z,18.80
2019-03-08T22:26:21.301Z,18.80
2019-03-08T22:28:48.278Z,18.80
2019-03-08T22:31:15.208Z,18.80
2019-03-08T22:33:41.631Z,18.80
2019-03-08T22:36:08.173Z,18.70
2019-03-08T22:38:34.594Z,18.70
2019-03-08T22:41:01.143Z,18.70
2019-03-08T22:43:27.662Z,18.70
2019-03-08T22:45:54.269Z,18.80
2019-03-08T22:48:20.816Z,18.70
2019-03-08T22:50:47.131Z,18.70
2019-03-08T22:53:13.577Z,18.70
2019-03-08T22:55:39.992Z,18.70
2019-03-08T22:58:06.502Z,18.70
2019-03-08T23:00:53.335Z,18.70
2019-03-08T23:03:20.045Z,18.70
2019-03-08T23:05:46.612Z,18.70
2019-03-08T23:08:13.022Z,18.60
2019-03-08T23:10:39.589Z,18.70
2019-03-08T23:13:06.466Z,18.60
2019-03-08T23:15:32.773Z,18.60
2019-03-08T23:17:59.335Z,18.60
2019-03-08T23:20:25.962Z,18.60
2019-03-08T23:22:52.499Z,18.60
2019-03-08T23:25:19.598Z,18.60
2019-03-08T23:27:55.049Z,18.60
2019-03-08T23:30:23.546Z,18.60
2019-03-08T23:32:50.001Z,18.60
2019-03-08T23:35:16.346Z,18.60
2019-03-08T23:37:42.861Z,18.60
2019-03-08T23:40:09.913Z,18.60
2019-03-08T23:42:36.680Z,18.60
2019-03-08T23:45:05.296Z,18.60
2019-03-08T23:47:31.840Z,18.50
2019-03-08T23:49:58.372Z,18.50
2019-03-08T23:52:24.928Z,18.50
2019-03-08T23:54:51.439Z,18.50
2019-03-08T23:57:18.073Z,18.50
2019-03-08T23:59:44.582Z,18.50
